createdAt,value
2022-11-20T00:01:27.467Z,100780.69
2022-11-20T00:03:55.955Z,100779.03
2022-11-20T00:06:23.456Z,100779.84
2022-11-20T00:08:50.233Z,100781.31
2022-11-20T00:11:21.681Z,100773.81
2022-11-20T00:13:49.934Z,100770.50
2022-11-20T00:16:19.154Z,100768.53
2022-11-20T00:18:46.315Z,100764.72
2022-11-20T00:21:17.980Z,100766.91
2022-11-20T00:23:44.891Z,100774.91
2022-11-20T00:26:16.987Z,100773.44
2022-11-20T00:28:44.297Z,100777.25
2022-11-20T00:31:13.847Z,100767.19
2022-11-20T00:33:40.441Z,100775.09
2022-11-20T00:36:09.278Z,100775.28
2022-11-20T00:38:36.014Z,100770.50
2022-11-20T00:41:04.815Z,100769.00
2022-11-20T00:43:31.538Z,100768.63
2022-11-20T00:46:04.493Z,100769.06
2022-11-20T00:48:31.585Z,100774.78
2022-11-20T00:50:58.013Z,100767.63
2022-11-20T00:53:25.269Z,100765.50
2022-11-20T00:56:01.214Z,100773.31
2022-11-20T00:58:31.686Z,100777.69
2022-11-20T01:01:08.247Z,100776.97
2022-11-20T01:03:36.561Z,100776.34
2022-11-20T01:06:05.017Z,100771.00
2022-11-20T01:08:33.796Z,100773.97
2022-11-20T01:11:02.718Z,100773.19
2022-11-20T01:13:40.154Z,100771.91
2022-11-20T01:16:17.974Z,100775.75
2022-11-20T01:18:46.589Z,100769.16
2022-11-20T01:21:16.503Z,100760.44
2022-11-20T01:23:44.627Z,100758.13
2022-11-20T01:26:16.503Z,100767.69
2022-11-20T01:28:43.684Z,100760.06
2022-11-20T01:31:21.993Z,100763.06
2022-11-20T01:33:50.737Z,100758.34
2022-11-20T01:36:18.042Z,100760.06
2022-11-20T01:38:44.565Z,100758.31
2022-11-20T01:41:12.074Z,100758.97
2022-11-20T01:43:38.463Z,100762.00
2022-11-20T01:46:20.128Z,100764.09
2022-11-20T01:48:53.681Z,100758.53
2022-11-20T01:51:33.227Z,100754.09
2022-11-20T01:54:05.394Z,100757.91
2022-11-20T01:56:37.067Z,100748.97
2022-11-20T01:59:06.409Z,100753.97
2022-11-20T02:01:32.868Z,100745.88
2022-11-20T02:04:00.865Z,100756.41
2022-11-20T02:06:31.696Z,100746.28
2022-11-20T02:08:58.318Z,100745.59
2022-11-20T02:11:24.730Z,100739.69
2022-11-20T02:13:51.417Z,100739.06
2022-11-20T02:16:24.906Z,100738.09
2022-11-20T02:18:52.416Z,100733.81
2022-11-20T02:21:30.363Z,100735.09
2022-11-20T02:24:00.728Z,100729.59
2022-11-20T02:26:30.857Z,100723.88
2022-11-20T02:28:58.780Z,100725.44
2022-11-20T02:31:25.177Z,100733.47
2022-11-20T02:33:58.924Z,100728.63
2022-11-20T02:36:28.085Z,100734.19
2022-11-20T02:38:54.835Z,100725.88
2022-11-20T02:41:21.293Z,100719.75
2022-11-20T02:43:47.715Z,100721.03
2022-11-20T02:46:14.144Z,100717.03
2022-11-20T02:48:40.542Z,100722.94
2022-11-20T02:51:06.952Z,100723.97
2022-11-20T02:53:33.372Z,100717.88
2022-11-20T02:55:59.787Z,100717.03
2022-11-20T02:58:26.170Z,100724.22
2022-11-20T03:00:53.562Z,100719.09
2022-11-20T03:03:20.003Z,100718.63
2022-11-20T03:05:46.406Z,100715.69
2022-11-20T03:08:12.789Z,100717.22
2022-11-20T03:10:39.182Z,100717.81
2022-11-20T03:13:06.272Z,100715.69
2022-11-20T03:15:32.682Z,100711.59
2022-11-20T03:17:59.060Z,100719.66
2022-11-20T03:20:25.453Z,100709.66
2022-11-20T03:22:51.856Z,100705.00
2022-11-20T03:25:18.244Z,100702.69
2022-11-20T03:27:44.627Z,100703.06
2022-11-20T03:30:11.290Z,100704.13
2022-11-20T03:32:37.672Z,100705.16
2022-11-20T03:35:04.279Z,100698.69
2022-11-20T03:37:30.663Z,100698.06
2022-11-20T03:39:57.087Z,100696.84
2022-11-20T03:42:42.067Z,100694.69
2022-11-20T03:45:08.775Z,100698.56
2022-11-20T03:47:35.160Z,100703.25
2022-11-20T03:50:01.565Z,100696.88
2022-11-20T03:52:27.946Z,100696.19
2022-11-20T03:54:54.341Z,100693.91
2022-11-20T03:57:20.770Z,100698.50
2022-11-20T03:59:47.195Z,100695.38
2022-11-20T04:02:13.605Z,100690.13
2022-11-20T04:04:40.042Z,100693.72
2022-11-20T04:07:06.489Z,100687.75
2022-11-20T04:09:32.899Z,100695.19
2022-11-20T04:11:59.323Z,100695.81
2022-11-20T04:14:25.801Z,100693.72
2022-11-20T04:16:52.222Z,100688.66
2022-11-20T04:19:19.514Z,100691.03
2022-11-20T04:21:46.475Z,100691.19
2022-11-20T04:24:13.271Z,100689.41
2022-11-20T04:26:40.228Z,100681.41
2022-11-20T04:29:06.610Z,100682.25
2022-11-20T04:31:34.576Z,100684.22
2022-11-20T04:34:05.856Z,100689.28
2022-11-20T04:36:32.980Z,100682.03
2022-11-20T04:39:01.868Z,100689.69
2022-11-20T04:41:30.911Z,100691.97
2022-11-20T04:44:05.463Z,100694.97
2022-11-20T04:46:34.542Z,100690.50
2022-11-20T04:49:01.052Z,100689.47
2022-11-20T04:51:27.896Z,100688.00
2022-11-20T04:53:54.727Z,100682.44
2022-11-20T04:56:21.211Z,100682.84
2022-11-20T04:58:47.602Z,100689.28
2022-11-20T05:01:22.931Z,100685.19
2022-11-20T05:03:49.932Z,100676.31
2022-11-20T05:06:18.267Z,100666.53
2022-11-20T05:08:44.713Z,100677.00
2022-11-20T05:11:13.934Z,100665.53
2022-11-20T05:13:40.887Z,100666.09
2022-11-20T05:16:13.142Z,100663.50
2022-11-20T05:18:40.492Z,100653.38
2022-11-20T05:21:07.844Z,100658.72
2022-11-20T05:23:35.115Z,100651.81
2022-11-20T05:26:02.222Z,100656.41
2022-11-20T05:28:30.540Z,100653.03
2022-11-20T05:30:57.015Z,100658.25
2022-11-20T05:33:23.561Z,100649.63
2022-11-20T05:35:50.432Z,100647.19
2022-11-20T05:38:16.918Z,100649.16
2022-11-20T05:40:43.457Z,100656.59
2022-11-20T05:43:09.865Z,100642.75
2022-11-20T05:45:36.501Z,100636.78
2022-11-20T05:48:03.009Z,100639.16
2022-11-20T05:50:29.444Z,100640.00
2022-11-20T05:52:55.872Z,100633.66
2022-11-20T05:55:22.310Z,100636.16
2022-11-20T05:57:48.696Z,100637.44
2022-11-20T06:00:15.811Z,100635.50
2022-11-20T06:02:42.260Z,100638.78
2022-11-20T06:05:09.762Z,100637.63
2022-11-20T06:07:36.228Z,100638.81
2022-11-20T06:10:02.681Z,100633.28
2022-11-20T06:12:29.075Z,100635.78
2022-11-20T06:14:55.462Z,100633.38
2022-11-20T06:17:21.849Z,100628.47
2022-11-20T06:19:48.238Z,100627.41
2022-11-20T06:22:14.617Z,100633.19
2022-11-20T06:24:40.998Z,100633.53
2022-11-20T06:27:07.374Z,100630.44
2022-11-20T06:29:34.205Z,100632.75
2022-11-20T06:32:00.833Z,100630.31
2022-11-20T06:34:27.289Z,100633.91
2022-11-20T06:36:53.681Z,100631.09
2022-11-20T06:39:20.489Z,100636.03
2022-11-20T06:41:47.133Z,100635.94
2022-11-20T06:44:13.526Z,100636.97
2022-11-20T06:46:39.934Z,100631.44
2022-11-20T06:49:06.794Z,100629.59
2022-11-20T06:51:33.222Z,100627.22
2022-11-20T06:54:00.565Z,100633.69
2022-11-20T06:56:27.000Z,100627.13
2022-11-20T06:58:53.420Z,100624.28
2022-11-20T07:01:19.852Z,100627.44
2022-11-20T07:03:48.975Z,100622.28
2022-11-20T07:06:17.833Z,100631.47
2022-11-20T07:08:44.241Z,100627.78
2022-11-20T07:11:12.878Z,100621.38
2022-11-20T07:13:39.270Z,100621.63
2022-11-20T07:16:08.406Z,100629.44
2022-11-20T07:18:35.199Z,100625.28
2022-11-20T07:21:08.044Z,100624.38
2022-11-20T07:23:35.248Z,100625.22
2022-11-20T07:26:09.969Z,100626.78
2022-11-20T07:28:36.634Z,100628.97
2022-11-20T07:31:04.089Z,100629.50
2022-11-20T07:33:30.465Z,100628.59
2022-11-20T07:35:56.866Z,100628.69
2022-11-20T07:38:23.249Z,100626.13
2022-11-20T07:40:49.924Z,100628.81
2022-11-20T07:43:16.341Z,100619.59
2022-11-20T07:45:42.753Z,100621.16
2022-11-20T07:48:09.141Z,100629.03
2022-11-20T07:50:35.532Z,100626.78
2022-11-20T07:53:06.200Z,100621.16
2022-11-20T07:55:33.408Z,100620.19
2022-11-20T07:58:00.580Z,100619.31
2022-11-20T08:00:27.303Z,100619.91
2022-11-20T08:02:53.761Z,100618.81
2022-11-20T08:05:20.139Z,100618.53
2022-11-20T08:07:46.837Z,100616.31
2022-11-20T08:10:15.164Z,100611.34
2022-11-20T08:13:05.412Z,100610.09
2022-11-20T08:15:32.781Z,100609.78
2022-11-20T08:18:29.950Z,100603.66
2022-11-20T08:20:52.136Z,100603.28
2022-11-20T08:23:18.531Z,100598.88
2022-11-20T08:25:49.849Z,100607.84
2022-11-20T08:28:21.393Z,100609.78
2022-11-20T08:30:48.628Z,100619.31
2022-11-20T08:33:15.272Z,100607.84
2022-11-20T08:35:42.570Z,100611.22
2022-11-20T08:38:10.300Z,100609.03
2022-11-20T08:40:36.763Z,100603.56
2022-11-20T08:43:03.145Z,100611.50
2022-11-20T08:45:34.170Z,100604.47
2022-11-20T08:48:04.809Z,100597.28
2022-11-20T08:50:33.131Z,100600.63
2022-11-20T08:53:06.637Z,100597.50
2022-11-20T08:55:33.195Z,100597.97
2022-11-20T08:58:03.681Z,100597.84
2022-11-20T09:00:30.082Z,100597.22
2022-11-20T09:02:56.510Z,100598.47
2022-11-20T09:05:22.896Z,100593.50
2022-11-20T09:07:49.290Z,100600.31
2022-11-20T09:10:25.519Z,100597.94
2022-11-20T09:12:53.134Z,100601.34
2022-11-20T09:15:20.087Z,100602.44
2022-11-20T09:18:01.339Z,100610.94
2022-11-20T09:20:29.577Z,100602.44
2022-11-20T09:22:56.857Z,100605.84
2022-11-20T09:25:23.285Z,100606.78
2022-11-20T09:27:56.049Z,100613.34
2022-11-20T09:30:22.447Z,100608.19
2022-11-20T09:32:48.856Z,100602.78
2022-11-20T09:35:15.627Z,100611.03
2022-11-20T09:37:42.140Z,100601.06
2022-11-20T09:40:20.732Z,100600.47
2022-11-20T09:43:16.392Z,100600.94
2022-11-20T09:46:00.156Z,100605.81
2022-11-20T09:48:44.141Z,100607.19
2022-11-20T09:51:13.308Z,100597.38
2022-11-20T09:54:10.441Z,100598.94
2022-11-20T09:56:43.820Z,100607.41
2022-11-20T09:59:24.744Z,100602.06
2022-11-20T10:01:51.395Z,100599.38
2022-11-20T10:04:20.590Z,100599.59
2022-11-20T10:07:30.672Z,100597.56
2022-11-20T10:09:55.758Z,100592.28
2022-11-20T10:12:37.697Z,100597.88
2022-11-20T10:15:13.986Z,100598.00
2022-11-20T10:18:06.596Z,100589.16
2022-11-20T10:20:57.433Z,100581.88
2022-11-20T10:23:45.829Z,100583.34
2022-11-20T10:26:24.499Z,100577.69
2022-11-20T10:29:09.881Z,100573.22
2022-11-20T10:31:42.405Z,100577.50
2022-11-20T10:34:27.855Z,100560.59
2022-11-20T10:37:04.548Z,100573.75
2022-11-20T10:39:52.183Z,100565.66
2022-11-20T10:42:28.920Z,100555.47
2022-11-20T10:45:06.368Z,100558.97
2022-11-20T10:47:33.826Z,100559.84
2022-11-20T10:50:05.748Z,100561.13
2022-11-20T10:52:44.436Z,100558.16
2022-11-20T10:55:35.768Z,100560.75
2022-11-20T10:58:02.765Z,100557.94
2022-11-20T11:00:32.414Z,100556.00
2022-11-20T11:03:03.826Z,100555.41
2022-11-20T11:05:44.029Z,100551.03
2022-11-20T11:08:17.558Z,100544.81
2022-11-20T11:10:58.378Z,100548.41
2022-11-20T11:13:27.161Z,100550.66
2022-11-20T11:15:54.412Z,100554.78
2022-11-20T11:18:29.327Z,100545.88
2022-11-20T11:20:57.083Z,100549.69
2022-11-20T11:23:40.775Z,100545.50
2022-11-20T11:26:19.671Z,100546.19
2022-11-20T11:28:59.561Z,100544.72
2022-11-20T11:31:27.658Z,100540.81
2022-11-20T11:34:07.850Z,100535.38
2022-11-20T11:36:36.306Z,100535.84
2022-11-20T11:39:05.545Z,100532.69
2022-11-20T11:41:36.582Z,100524.41
2022-11-20T11:44:46.433Z,100528.00
2022-11-20T11:47:34.473Z,100522.78
2022-11-20T11:50:17.210Z,100516.31
2022-11-20T11:53:15.432Z,100519.22
2022-11-20T11:55:50.740Z,100515.59
2022-11-20T11:58:39.015Z,100523.50
2022-11-20T12:01:39.776Z,100527.63
2022-11-20T12:04:17.650Z,100523.88
2022-11-20T12:06:48.250Z,100518.69
2022-11-20T12:09:14.840Z,100513.78
2022-11-20T12:11:46.224Z,100514.91
2022-11-20T12:14:24.786Z,100512.00
2022-11-20T12:16:53.695Z,100511.03
2022-11-20T12:19:20.184Z,100505.50
2022-11-20T12:22:25.566Z,100512.94
2022-11-20T12:24:59.818Z,100509.72
2022-11-20T12:27:51.130Z,100515.72
2022-11-20T12:30:18.353Z,100515.06
2022-11-20T12:33:13.733Z,100507.63
2022-11-20T12:35:56.657Z,100499.66
2022-11-20T12:38:47.690Z,100502.28
2022-11-20T12:41:56.638Z,100498.63
2022-11-20T12:45:07.606Z,100506.88
2022-11-20T12:47:48.990Z,100494.41
2022-11-20T12:50:42.839Z,100499.66
2022-11-20T12:53:33.090Z,100495.94
2022-11-20T12:56:35.637Z,100490.56
2022-11-20T12:59:32.458Z,100500.38
2022-11-20T13:02:24.108Z,100485.88
2022-11-20T13:05:27.281Z,100482.66
2022-11-20T13:07:54.476Z,100481.44
2022-11-20T13:10:51.734Z,100470.63
2022-11-20T13:13:29.663Z,100477.19
2022-11-20T13:16:07.922Z,100475.91
2022-11-20T13:18:40.542Z,100468.63
2022-11-20T13:21:43.489Z,100473.22
2022-11-20T13:24:27.217Z,100474.97
2022-11-20T13:27:08.614Z,100470.28
2022-11-20T13:29:37.483Z,100462.38
2022-11-20T13:32:08.116Z,100464.28
2022-11-20T13:34:35.855Z,100461.91
2022-11-20T13:37:04.617Z,100462.16
2022-11-20T13:39:33.850Z,100463.59
2022-11-20T13:42:27.661Z,100459.03
2022-11-20T13:45:03.422Z,100466.34
2022-11-20T13:47:30.431Z,100459.53
2022-11-20T13:50:00.162Z,100460.50
2022-11-20T13:52:44.856Z,100467.41
2022-11-20T13:55:41.512Z,100460.78
2022-11-20T13:58:36.918Z,100462.22
2022-11-20T14:01:16.067Z,100459.84
2022-11-20T14:06:32.466Z,100472.84
2022-11-20T14:09:00.229Z,100463.50
2022-11-20T14:11:28.765Z,100468.72
2022-11-20T14:14:14.477Z,100471.75
2022-11-20T14:16:40.870Z,100471.28
2022-11-20T14:19:22.293Z,100474.88
2022-11-20T14:21:53.619Z,100473.31
2022-11-20T14:24:22.427Z,100466.94
2022-11-20T14:26:50.969Z,100469.19
2022-11-20T14:29:19.886Z,100461.06
2022-11-20T14:31:53.716Z,100467.34
2022-11-20T14:34:26.200Z,100475.00
2022-11-20T14:36:58.031Z,100468.78
2022-11-20T14:39:31.671Z,100469.38
2022-11-20T14:41:58.049Z,100468.63
2022-11-20T14:44:28.653Z,100468.53
2022-11-20T14:46:56.705Z,100473.13
2022-11-20T14:49:23.425Z,100463.94
2022-11-20T14:52:03.389Z,100470.78
2022-11-20T14:54:31.540Z,100469.13
2022-11-20T14:57:04.310Z,100462.16
2022-11-20T14:59:33.320Z,100463.59
2022-11-20T15:02:11.304Z,100465.63
2022-11-20T15:04:48.499Z,100460.91
2022-11-20T15:07:26.175Z,100461.38
2022-11-20T15:10:06.702Z,100458.00
2022-11-20T15:12:36.146Z,100455.91
2022-11-20T15:15:04.284Z,100458.66
2022-11-20T15:17:32.474Z,100463.16
2022-11-20T15:20:00.764Z,100455.53
2022-11-20T15:22:27.158Z,100454.81
2022-11-20T15:24:53.557Z,100449.09
2022-11-20T15:27:19.983Z,100445.75
2022-11-20T15:29:46.364Z,100442.50
2022-11-20T15:32:13.786Z,100440.44
2022-11-20T15:34:40.364Z,100445.34
2022-11-20T15:37:06.736Z,100449.47
2022-11-20T15:39:33.144Z,100438.63
2022-11-20T15:41:59.529Z,100446.31
2022-11-20T15:44:26.069Z,100434.28
2022-11-20T15:46:52.558Z,100437.94
2022-11-20T15:49:23.696Z,100432.38
2022-11-20T15:51:50.614Z,100426.63
2022-11-20T15:54:22.640Z,100431.53
2022-11-20T15:56:53.114Z,100440.50
2022-11-20T15:59:19.839Z,100432.38
2022-11-20T16:01:46.354Z,100429.84
2022-11-20T16:04:14.864Z,100429.09
2022-11-20T16:06:41.374Z,100427.91
2022-11-20T16:09:08.118Z,100420.84
2022-11-20T16:11:37.418Z,100415.34
2022-11-20T16:14:23.481Z,100410.84
2022-11-20T16:16:50.088Z,100417.34
2022-11-20T16:19:16.615Z,100412.28
2022-11-20T16:21:43.150Z,100413.63
2022-11-20T16:24:13.632Z,100414.13
2022-11-20T16:26:40.835Z,100417.19
2022-11-20T16:29:07.918Z,100422.56
2022-11-20T16:31:34.637Z,100417.06
2022-11-20T16:34:08.459Z,100418.72
2022-11-20T16:36:40.939Z,100419.88
2022-11-20T16:39:07.466Z,100423.19
2022-11-20T16:41:34.973Z,100420.78
2022-11-20T16:44:06.773Z,100410.94
2022-11-20T16:46:33.472Z,100419.38
2022-11-20T16:49:05.876Z,100429.59
2022-11-20T16:51:35.468Z,100421.81
2022-11-20T16:54:02.952Z,100417.13
2022-11-20T16:56:29.338Z,100416.28
2022-11-20T16:58:57.770Z,100420.13
2022-11-20T17:01:25.451Z,100422.78
2022-11-20T17:03:57.764Z,100422.41
2022-11-20T17:06:27.259Z,100420.88
2022-11-20T17:08:55.345Z,100412.69
2022-11-20T17:11:22.689Z,100415.56
2022-11-20T17:13:49.358Z,100422.53
2022-11-20T17:16:18.291Z,100411.72
2022-11-20T17:18:45.312Z,100417.84
2022-11-20T17:21:13.022Z,100416.22
2022-11-20T17:23:42.130Z,100414.16
2022-11-20T17:26:11.344Z,100412.66
2022-11-20T17:28:38.915Z,100418.44
2022-11-20T17:31:08.443Z,100419.38
2022-11-20T17:33:36.754Z,100417.69
2022-11-20T17:36:04.246Z,100417.75
2022-11-20T17:38:30.749Z,100416.25
2022-11-20T17:41:09.118Z,100413.84
2022-11-20T17:43:38.425Z,100412.91
2022-11-20T17:46:10.883Z,100416.59
2022-11-20T17:48:38.031Z,100411.50
2022-11-20T17:51:06.239Z,100410.03
2022-11-20T17:53:34.520Z,100408.91
2022-11-20T17:56:19.365Z,100401.13
2022-11-20T17:58:45.857Z,100407.69
2022-11-20T18:01:12.542Z,100405.75
2022-11-20T18:03:39.047Z,100399.41
2022-11-20T18:06:10.677Z,100399.66
2022-11-20T18:08:37.540Z,100392.38
2022-11-20T18:11:14.996Z,100391.16
2022-11-20T18:14:01.783Z,100387.81
2022-11-20T18:16:30.798Z,100386.22
2022-11-20T18:18:58.229Z,100384.59
2022-11-20T18:21:26.959Z,100383.66
2022-11-20T18:23:55.211Z,100374.41
2022-11-20T18:26:22.281Z,100380.75
2022-11-20T18:28:48.682Z,100377.41
2022-11-20T18:31:15.422Z,100379.19
2022-11-20T18:33:41.904Z,100385.59
2022-11-20T18:36:10.792Z,100388.81
2022-11-20T18:38:40.639Z,100382.69
2022-11-20T18:41:08.196Z,100379.72
2022-11-20T18:43:53.468Z,100377.81
2022-11-20T18:46:21.892Z,100377.81
2022-11-20T18:48:48.312Z,100381.16
2022-11-20T18:51:16.210Z,100376.19
2022-11-20T18:53:47.207Z,100378.56
2022-11-20T18:56:14.006Z,100367.50
2022-11-20T18:58:41.307Z,100377.28
2022-11-20T19:01:08.468Z,100377.72
2022-11-20T19:03:34.938Z,100371.75
2022-11-20T19:06:01.335Z,100378.81
2022-11-20T19:08:27.906Z,100373.91
2022-11-20T19:10:54.355Z,100372.06
2022-11-20T19:13:20.792Z,100374.13
2022-11-20T19:15:47.609Z,100376.72
2022-11-20T19:18:14.043Z,100375.91
2022-11-20T19:20:40.429Z,100374.97
2022-11-20T19:23:06.803Z,100374.72
2022-11-20T19:25:37.921Z,100380.31
2022-11-20T19:28:04.975Z,100384.38
2022-11-20T19:30:31.393Z,100383.31
2022-11-20T19:32:58.057Z,100382.00
2022-11-20T19:35:24.918Z,100379.53
2022-11-20T19:37:51.751Z,100378.03
2022-11-20T19:40:18.146Z,100366.81
2022-11-20T19:42:44.534Z,100367.63
2022-11-20T19:45:10.939Z,100367.41
2022-11-20T19:48:07.164Z,100367.84
2022-11-20T19:50:23.866Z,100373.53
2022-11-20T19:52:53.156Z,100371.59
2022-11-20T19:55:23.794Z,100363.81
2022-11-20T19:57:50.212Z,100363.41
2022-11-20T20:00:23.109Z,100360.75
2022-11-20T20:02:54.681Z,100357.00
2022-11-20T20:05:21.111Z,100353.34
2022-11-20T20:07:47.880Z,100357.78
2022-11-20T20:10:14.616Z,100358.41
2022-11-20T20:12:41.024Z,100353.78
2022-11-20T20:15:07.823Z,100358.44
2022-11-20T20:17:34.238Z,100353.03
2022-11-20T20:20:00.634Z,100346.22
2022-11-20T20:22:27.017Z,100350.13
2022-11-20T20:24:53.394Z,100336.22
2022-11-20T20:27:19.838Z,100327.34
2022-11-20T20:29:46.230Z,100329.47
2022-11-20T20:32:12.636Z,100327.88
2022-11-20T20:34:39.072Z,100326.09
2022-11-20T20:37:05.466Z,100323.75
2022-11-20T20:39:31.997Z,100315.66
2022-11-20T20:41:58.370Z,100327.19
2022-11-20T20:44:43.426Z,100323.69
2022-11-20T20:47:09.816Z,100313.72
2022-11-20T20:49:36.532Z,100321.22
2022-11-20T20:52:02.934Z,100316.31
2022-11-20T20:54:33.125Z,100313.81
2022-11-20T20:57:00.805Z,100309.06
2022-11-20T20:59:27.183Z,100311.53
2022-11-20T21:01:53.564Z,100307.53
2022-11-20T21:04:19.990Z,100315.56
2022-11-20T21:06:46.372Z,100310.13
2022-11-20T21:09:12.749Z,100311.97
2022-11-20T21:11:39.709Z,100300.28
2022-11-20T21:14:06.204Z,100297.66
2022-11-20T21:16:40.892Z,100296.13
2022-11-20T21:19:07.882Z,100290.63
2022-11-20T21:21:52.944Z,100286.03
2022-11-20T21:24:19.512Z,100279.91
2022-11-20T21:26:46.005Z,100279.41
2022-11-20T21:29:12.600Z,100284.50
2022-11-20T21:31:38.983Z,100281.53
2022-11-20T21:34:05.366Z,100282.81
2022-11-20T21:36:32.004Z,100281.13
2022-11-20T21:39:02.462Z,100274.19
2022-11-20T21:41:30.412Z,100270.22
2022-11-20T21:44:29.709Z,100267.28
2022-11-20T21:46:46.347Z,100268.50
2022-11-20T21:49:14.437Z,100262.56
2022-11-20T21:51:40.815Z,100263.84
2022-11-20T21:54:07.524Z,100257.69
2022-11-20T21:56:33.930Z,100257.47
2022-11-20T21:59:00.512Z,100249.47
2022-11-20T22:01:29.446Z,100251.72
2022-11-20T22:03:59.164Z,100245.03
2022-11-20T22:06:29.363Z,100250.41
2022-11-20T22:08:55.775Z,100246.81
2022-11-20T22:11:22.280Z,100244.31
2022-11-20T22:14:07.974Z,100236.56
2022-11-20T22:16:36.212Z,100233.38
2022-11-20T22:19:02.921Z,100235.16
2022-11-20T22:21:30.422Z,100235.00
2022-11-20T22:23:58.317Z,100229.44
2022-11-20T22:26:27.394Z,100228.09
2022-11-20T22:28:56.128Z,100226.19
2022-11-20T22:31:24.799Z,100222.25
2022-11-20T22:33:51.659Z,100219.25
2022-11-20T22:36:28.811Z,100223.91
2022-11-20T22:38:55.746Z,100218.78
2022-11-20T22:41:28.775Z,100214.38
2022-11-20T22:43:57.325Z,100207.97
2022-11-20T22:46:25.049Z,100206.91
2022-11-20T22:48:59.236Z,100203.97
2022-11-20T22:51:37.225Z,100199.34
2022-11-20T22:54:04.062Z,100203.94
2022-11-20T22:56:31.319Z,100193.81
2022-11-20T22:58:57.936Z,100194.06
2022-11-20T23:01:26.855Z,100189.19
2022-11-20T23:03:57.226Z,100189.59
2022-11-20T23:06:24.264Z,100189.13
2022-11-20T23:08:51.103Z,100185.63
2022-11-20T23:11:28.945Z,100189.59
2022-11-20T23:13:58.159Z,100178.25
2022-11-20T23:16:26.139Z,100178.41
2022-11-20T23:19:01.049Z,100184.94
2022-11-20T23:21:27.808Z,100181.97
2022-11-20T23:23:56.064Z,100178.41
2022-11-20T23:26:24.812Z,100171.75
2022-11-20T23:28:53.849Z,100167.25
2022-11-20T23:31:20.832Z,100164.03
2022-11-20T23:33:47.319Z,100154.97
2022-11-20T23:36:14.494Z,100154.88
2022-11-20T23:38:41.219Z,100161.84
2022-11-20T23:41:08.281Z,100152.00
2022-11-20T23:43:35.106Z,100152.63
2022-11-20T23:46:02.441Z,100146.72
2022-11-20T23:48:31.152Z,100140.81
2022-11-20T23:50:57.932Z,100142.47
2022-11-20T23:53:25.575Z,100143.69
2022-11-20T23:56:00.660Z,100138.59
2022-11-20T23:58:32.309Z,100141.09
